createdAt,value
2022-12-18T00:00:25.645Z,-13.36
2022-12-18T00:02:54.573Z,-13.11
2022-12-18T00:05:23.500Z,-13.25
2022-12-18T00:07:52.317Z,-13.28
2022-12-18T00:10:21.117Z,-13.05
2022-12-18T00:12:49.932Z,-13.43
2022-12-18T00:15:18.791Z,-13.44
2022-12-18T00:17:48.825Z,-13.36
2022-12-18T00:20:22.745Z,-13.12
2022-12-18T00:22:51.534Z,-13.66
2022-12-18T00:25:20.367Z,-13.48
2022-12-18T00:27:49.185Z,-13.38
2022-12-18T00:30:18.185Z,-13.32
2022-12-18T00:32:48.376Z,-13.16
2022-12-18T00:35:17.454Z,-13.37
2022-12-18T00:37:46.280Z,-13.36
2022-12-18T00:40:15.054Z,-13.28
2022-12-18T00:42:57.949Z,-13.38
2022-12-18T00:45:30.419Z,-13.39
2022-12-18T00:48:00.656Z,-13.33
2022-12-18T00:50:29.863Z,-13.65
2022-12-18T00:52:58.665Z,-13.73
2022-12-18T00:55:27.856Z,-13.90
2022-12-18T00:57:56.852Z,-13.78
2022-12-18T01:00:26.199Z,-13.42
2022-12-18T01:02:55.069Z,-13.58
2022-12-18T01:05:25.120Z,-13.61
2022-12-18T01:07:54.207Z,-13.70
2022-12-18T01:10:23.163Z,-13.45
2022-12-18T01:12:52.045Z,-13.45
2022-12-18T01:15:21.504Z,-13.45
2022-12-18T01:17:50.356Z,-13.28
2022-12-18T01:20:19.196Z,-13.20
2022-12-18T01:22:49.524Z,-13.38
2022-12-18T01:25:18.541Z,-13.37
2022-12-18T01:27:47.465Z,-13.39
2022-12-18T01:30:16.317Z,-13.10
2022-12-18T01:32:45.169Z,-13.11
2022-12-18T01:35:13.990Z,-13.26
2022-12-18T01:37:42.817Z,-12.95
2022-12-18T01:40:13.844Z,-13.16
2022-12-18T01:42:42.726Z,-12.90
2022-12-18T01:45:28.602Z,-12.90
2022-12-18T01:47:59.818Z,-12.67
2022-12-18T01:50:34.127Z,-12.60
2022-12-18T01:53:09.079Z,-12.60
2022-12-18T01:55:47.374Z,-12.73
2022-12-18T01:58:16.434Z,-12.64
2022-12-18T02:00:45.839Z,-12.75
2022-12-18T02:03:15.436Z,-13.07
2022-12-18T02:05:50.014Z,-12.67
2022-12-18T02:08:23.725Z,-12.56
2022-12-18T02:11:04.655Z,-12.66
2022-12-18T02:13:44.281Z,-12.43
2022-12-18T02:16:24.328Z,-12.45
2022-12-18T02:18:59.847Z,-12.46
2022-12-18T02:21:45.759Z,-12.40
2022-12-18T02:24:30.057Z,-12.49
2022-12-18T02:27:03.619Z,-12.52
2022-12-18T02:29:38.020Z,-12.50
2022-12-18T02:32:13.300Z,-12.65
2022-12-18T02:34:43.419Z,-12.54
2022-12-18T02:37:15.279Z,-12.42
2022-12-18T02:39:46.284Z,-12.38
2022-12-18T02:42:16.895Z,-12.40
2022-12-18T02:44:46.587Z,-12.65
2022-12-18T02:47:17.295Z,-12.79
2022-12-18T02:49:57.287Z,-12.41
2022-12-18T02:52:35.635Z,-12.65
2022-12-18T02:55:19.887Z,-12.66
2022-12-18T02:57:55.654Z,-12.27
2022-12-18T03:00:29.789Z,-12.18
2022-12-18T03:03:05.519Z,-12.25
2022-12-18T03:05:40.219Z,-12.36
2022-12-18T03:08:14.426Z,-12.27
2022-12-18T03:10:52.098Z,-12.12
2022-12-18T03:13:33.668Z,-12.26
2022-12-18T03:16:03.911Z,-12.44
2022-12-18T03:18:39.382Z,-12.69
2022-12-18T03:21:10.506Z,-12.67
2022-12-18T03:23:43.966Z,-12.45
2022-12-18T03:26:16.514Z,-12.82
2022-12-18T03:28:53.799Z,-12.74
2022-12-18T03:31:25.415Z,-12.78
2022-12-18T03:33:57.229Z,-12.95
2022-12-18T03:36:26.409Z,-13.14
2022-12-18T03:38:55.349Z,-13.11
2022-12-18T03:41:33.458Z,-13.23
2022-12-18T03:44:13.041Z,-13.64
2022-12-18T03:46:48.409Z,-13.49
2022-12-18T03:49:26.274Z,-13.80
2022-12-18T03:52:03.980Z,-13.64
2022-12-18T03:54:33.908Z,-13.77
2022-12-18T03:57:08.118Z,-13.79
2022-12-18T03:59:40.272Z,-13.81
2022-12-18T04:02:10.828Z,-13.86
2022-12-18T04:04:41.326Z,-13.92
2022-12-18T04:07:10.903Z,-13.85
2022-12-18T04:09:39.863Z,-13.99
2022-12-18T04:12:11.702Z,-13.94
2022-12-18T04:14:41.923Z,-13.73
2022-12-18T04:17:10.810Z,-13.96
2022-12-18T04:19:39.647Z,-14.05
2022-12-18T04:22:10.992Z,-13.90
2022-12-18T04:24:40.182Z,-14.26
2022-12-18T04:27:09.132Z,-14.15
2022-12-18T04:29:37.935Z,-14.01
2022-12-18T04:32:08.264Z,-13.98
2022-12-18T04:34:37.105Z,-13.98
2022-12-18T04:37:05.944Z,-14.02
2022-12-18T04:39:34.830Z,-14.29
2022-12-18T04:42:03.695Z,-14.47
2022-12-18T04:44:32.533Z,-14.30
2022-12-18T04:47:01.379Z,-14.33
2022-12-18T04:49:31.322Z,-14.19
2022-12-18T04:52:00.123Z,-14.19
2022-12-18T04:54:29.161Z,-14.42
2022-12-18T04:56:57.981Z,-14.42
2022-12-18T04:59:26.815Z,-14.57
2022-12-18T05:01:55.793Z,-14.64
2022-12-18T05:04:24.762Z,-14.74
2022-12-18T05:06:54.712Z,-14.65
2022-12-18T05:09:23.844Z,-14.54
2022-12-18T05:11:52.695Z,-14.27
2022-12-18T05:14:21.724Z,-14.57
2022-12-18T05:16:50.563Z,-14.69
2022-12-18T05:19:19.612Z,-14.98
2022-12-18T05:21:48.444Z,-14.82
2022-12-18T05:24:18.577Z,-14.62
2022-12-18T05:26:47.421Z,-14.86
2022-12-18T05:29:16.253Z,-14.64
2022-12-18T05:31:45.105Z,-14.73
2022-12-18T05:34:14.176Z,-15.03
2022-12-18T05:36:43.696Z,-14.86
2022-12-18T05:39:13.683Z,-14.79
2022-12-18T05:41:43.822Z,-14.57
2022-12-18T05:44:13.029Z,-14.86
2022-12-18T05:46:41.889Z,-14.95
2022-12-18T05:49:10.764Z,-14.93
2022-12-18T05:51:39.649Z,-14.87
2022-12-18T05:54:09.303Z,-15.23
2022-12-18T05:56:38.426Z,-15.11
2022-12-18T05:59:08.406Z,-15.13
2022-12-18T06:01:37.650Z,-14.81
2022-12-18T06:04:06.960Z,-14.93
2022-12-18T06:06:36.025Z,-14.85
2022-12-18T06:09:09.470Z,-15.30
2022-12-18T06:11:39.217Z,-15.32
2022-12-18T06:14:09.909Z,-15.33
2022-12-18T06:16:38.795Z,-15.32
2022-12-18T06:19:08.454Z,-15.34
2022-12-18T06:21:37.526Z,-15.27
2022-12-18T06:24:06.897Z,-15.31
2022-12-18T06:26:35.839Z,-15.31
2022-12-18T06:29:04.674Z,-15.50
2022-12-18T06:31:35.028Z,-15.56
2022-12-18T06:34:06.673Z,-15.37
2022-12-18T06:36:35.743Z,-15.37
2022-12-18T06:39:04.972Z,-15.30
2022-12-18T06:41:33.791Z,-15.39
2022-12-18T06:44:02.610Z,-15.29
2022-12-18T06:46:31.668Z,-15.34
2022-12-18T06:49:01.634Z,-15.27
2022-12-18T06:51:30.472Z,-15.27
2022-12-18T06:53:59.339Z,-15.35
2022-12-18T06:56:28.207Z,-15.39
2022-12-18T06:58:57.234Z,-15.48
2022-12-18T07:01:26.112Z,-15.41
2022-12-18T07:03:55.926Z,-15.38
2022-12-18T07:06:28.376Z,-15.42
2022-12-18T07:08:57.801Z,-15.17
2022-12-18T07:11:27.693Z,-15.09
2022-12-18T07:13:56.621Z,-14.97
2022-12-18T07:16:26.001Z,-14.99
2022-12-18T07:18:56.279Z,-15.24
2022-12-18T07:21:26.999Z,-15.16
2022-12-18T07:23:55.817Z,-14.84
2022-12-18T07:26:25.182Z,-14.96
2022-12-18T07:28:58.593Z,-14.87
2022-12-18T07:31:29.027Z,-14.80
2022-12-18T07:33:58.182Z,-14.63
2022-12-18T07:36:28.181Z,-14.61
2022-12-18T07:38:57.142Z,-14.64
2022-12-18T07:41:26.178Z,-14.69
2022-12-18T07:43:55.076Z,-14.75
2022-12-18T07:46:24.420Z,-15.06
2022-12-18T07:48:53.292Z,-14.88
2022-12-18T07:51:22.258Z,-14.83
2022-12-18T07:53:52.713Z,-14.85
2022-12-18T07:56:27.694Z,-14.84
2022-12-18T07:58:57.740Z,-14.65
2022-12-18T08:01:26.689Z,-14.65
2022-12-18T08:03:55.700Z,-14.69
2022-12-18T08:06:24.955Z,-14.87
2022-12-18T08:08:56.416Z,-15.04
2022-12-18T08:11:27.889Z,-15.22
2022-12-18T08:13:57.618Z,-15.15
2022-12-18T08:16:26.685Z,-14.84
2022-12-18T08:18:55.889Z,-14.90
2022-12-18T08:21:27.697Z,-14.72
2022-12-18T08:24:02.720Z,-14.68
2022-12-18T08:26:33.600Z,-14.69
2022-12-18T08:29:02.807Z,-14.58
2022-12-18T08:31:34.249Z,-14.65
2022-12-18T08:34:03.145Z,-14.75
2022-12-18T08:36:31.711Z,-14.84
2022-12-18T08:39:01.654Z,-15.03
2022-12-18T08:41:30.533Z,-15.17
2022-12-18T08:44:17.247Z,-14.97
2022-12-18T08:46:46.684Z,-14.72
2022-12-18T08:49:15.876Z,-14.73
2022-12-18T08:51:44.703Z,-14.68
2022-12-18T08:54:15.935Z,-14.62
2022-12-18T08:56:45.017Z,-14.47
2022-12-18T08:59:19.317Z,-14.33
2022-12-18T09:01:49.508Z,-14.08
2022-12-18T09:04:18.745Z,-14.11
2022-12-18T09:06:47.583Z,-14.03
2022-12-18T09:09:17.580Z,-14.07
2022-12-18T09:11:46.504Z,-13.82
2022-12-18T09:14:15.385Z,-13.65
2022-12-18T09:16:44.210Z,-13.59
2022-12-18T09:19:13.221Z,-13.37
2022-12-18T09:21:46.263Z,-13.29
2022-12-18T09:24:18.955Z,-13.43
2022-12-18T09:26:47.937Z,-13.17
2022-12-18T09:29:18.789Z,-12.97
2022-12-18T09:31:48.129Z,-13.01
2022-12-18T09:34:16.734Z,-12.87
2022-12-18T09:36:45.648Z,-12.84
2022-12-18T09:39:17.977Z,-12.67
2022-12-18T09:41:54.830Z,-12.58
2022-12-18T09:44:27.397Z,-12.44
2022-12-18T09:47:07.225Z,-12.43
2022-12-18T09:49:41.192Z,-12.26
2022-12-18T09:52:17.336Z,-12.24
2022-12-18T09:54:52.871Z,-12.18
2022-12-18T09:57:25.789Z,-11.90
2022-12-18T09:59:59.520Z,-11.96
2022-12-18T10:02:29.652Z,-11.74
2022-12-18T10:05:13.680Z,-11.80
2022-12-18T10:08:01.891Z,-11.73
2022-12-18T10:10:42.077Z,-11.56
2022-12-18T10:13:23.856Z,-11.25
2022-12-18T10:16:08.860Z,-11.06
2022-12-18T10:19:01.543Z,-10.75
2022-12-18T10:21:36.340Z,-10.64
2022-12-18T10:24:17.993Z,-10.53
2022-12-18T10:26:49.209Z,-10.40
2022-12-18T10:29:19.526Z,-10.33
2022-12-18T10:31:48.358Z,-10.09
2022-12-18T10:34:17.384Z,-10.08
2022-12-18T10:36:46.352Z,-9.94
2022-12-18T10:39:21.418Z,-9.77
2022-12-18T10:41:51.400Z,-9.59
2022-12-18T10:44:23.699Z,-9.70
2022-12-18T10:46:57.221Z,-9.53
2022-12-18T10:49:28.780Z,-9.37
2022-12-18T10:52:10.169Z,-9.17
2022-12-18T10:54:39.361Z,-8.95
2022-12-18T10:57:31.827Z,-8.88
2022-12-18T11:00:22.048Z,-8.87
2022-12-18T11:02:51.036Z,-8.61
2022-12-18T11:05:32.251Z,-8.17
2022-12-18T11:08:02.510Z,-7.71
2022-12-18T11:10:34.857Z,-7.55
2022-12-18T11:13:20.435Z,-7.32
2022-12-18T11:15:49.513Z,-7.11
2022-12-18T11:18:22.519Z,-6.89
2022-12-18T11:20:58.742Z,-6.77
2022-12-18T11:23:28.954Z,-6.69
2022-12-18T11:26:00.652Z,-6.45
2022-12-18T11:28:50.120Z,-6.27
2022-12-18T11:31:26.737Z,-6.17
2022-12-18T11:34:28.755Z,-6.24
2022-12-18T11:36:58.314Z,-6.09
2022-12-18T11:39:37.709Z,-6.07
2022-12-18T11:42:15.369Z,-5.96
2022-12-18T11:44:51.179Z,-5.91
2022-12-18T11:47:33.151Z,-5.70
2022-12-18T11:50:05.317Z,-5.87
2022-12-18T11:52:39.755Z,-5.55
2022-12-18T11:55:16.305Z,-5.56
2022-12-18T11:57:57.070Z,-5.30
2022-12-18T12:00:27.487Z,-5.31
2022-12-18T12:03:44.640Z,-5.26
2022-12-18T12:06:22.007Z,-5.28
2022-12-18T12:09:05.880Z,-5.15
2022-12-18T12:11:46.066Z,-5.20
2022-12-18T12:14:45.374Z,-5.00
2022-12-18T12:17:26.084Z,-4.90
2022-12-18T12:20:04.034Z,-5.01
2022-12-18T12:22:41.988Z,-4.95
2022-12-18T12:25:30.054Z,-4.92
2022-12-18T12:28:15.576Z,-5.24
2022-12-18T12:30:58.625Z,-5.02
2022-12-18T12:33:42.627Z,-4.76
2022-12-18T12:36:22.761Z,-4.80
2022-12-18T12:38:57.704Z,-4.76
2022-12-18T12:41:48.337Z,-4.83
2022-12-18T12:44:23.424Z,-4.81
2022-12-18T12:46:54.876Z,-4.83
2022-12-18T12:49:29.128Z,-4.72
2022-12-18T12:52:07.588Z,-4.69
2022-12-18T12:54:37.734Z,-4.81
2022-12-18T12:57:15.156Z,-4.68
2022-12-18T12:59:53.496Z,-4.70
2022-12-18T13:02:31.309Z,-4.66
2022-12-18T13:05:08.983Z,-4.58
2022-12-18T13:07:43.655Z,-4.60
2022-12-18T13:10:33.666Z,-4.58
2022-12-18T13:13:04.884Z,-4.51
2022-12-18T13:15:40.273Z,-4.54
2022-12-18T13:18:21.788Z,-4.50
2022-12-18T13:20:59.770Z,-4.43
2022-12-18T13:23:41.669Z,-4.40
2022-12-18T13:26:35.457Z,-4.63
2022-12-18T13:29:10.737Z,-4.71
2022-12-18T13:32:22.441Z,-4.54
2022-12-18T13:35:42.984Z,-4.61
2022-12-18T13:38:24.646Z,-4.61
2022-12-18T13:40:59.118Z,-4.59
2022-12-18T13:43:44.035Z,-4.71
2022-12-18T13:46:27.049Z,-4.67
2022-12-18T13:49:01.935Z,-4.66
2022-12-18T13:51:34.290Z,-4.57
2022-12-18T13:54:04.931Z,-4.75
2022-12-18T13:56:35.910Z,-4.69
2022-12-18T13:59:24.535Z,-4.56
2022-12-18T14:01:57.889Z,-4.58
2022-12-18T14:04:30.091Z,-4.62
2022-12-18T14:07:04.391Z,-4.57
2022-12-18T14:09:37.335Z,-4.45
2022-12-18T14:12:26.288Z,-4.53
2022-12-18T14:14:56.035Z,-4.58
2022-12-18T14:17:26.336Z,-4.74
2022-12-18T14:19:55.175Z,-4.82
2022-12-18T14:22:28.925Z,-4.76
2022-12-18T14:25:17.915Z,-4.82
2022-12-18T14:27:49.692Z,-4.79
2022-12-18T14:30:30.539Z,-4.81
2022-12-18T14:33:05.588Z,-4.81
2022-12-18T14:35:35.667Z,-4.68
2022-12-18T14:38:25.401Z,-4.85
2022-12-18T14:41:01.931Z,-4.88
2022-12-18T14:43:34.345Z,-4.89
2022-12-18T14:46:04.213Z,-4.90
2022-12-18T14:48:41.054Z,-5.17
2022-12-18T14:51:18.002Z,-5.11
2022-12-18T14:53:53.981Z,-5.02
2022-12-18T14:56:26.035Z,-5.04
2022-12-18T14:58:58.228Z,-5.27
2022-12-18T15:01:30.691Z,-5.28
2022-12-18T15:04:02.806Z,-5.26
2022-12-18T15:06:35.840Z,-5.35
2022-12-18T15:09:08.622Z,-5.38
2022-12-18T15:11:48.444Z,-5.39
2022-12-18T15:14:40.570Z,-5.51
2022-12-18T15:17:20.106Z,-5.43
2022-12-18T15:19:52.864Z,-5.50
2022-12-18T15:22:28.560Z,-5.53
2022-12-18T15:24:58.489Z,-5.61
2022-12-18T15:27:36.924Z,-5.57
2022-12-18T15:30:22.068Z,-5.65
2022-12-18T15:32:51.423Z,-5.69
2022-12-18T15:35:24.506Z,-5.74
2022-12-18T15:37:54.298Z,-5.67
2022-12-18T15:40:25.844Z,-5.68
2022-12-18T15:43:28.538Z,-5.71
2022-12-18T15:45:57.307Z,-5.68
2022-12-18T15:48:25.828Z,-5.57
2022-12-18T15:50:59.435Z,-5.57
2022-12-18T15:53:33.183Z,-5.54
2022-12-18T15:56:19.468Z,-5.61
2022-12-18T15:58:48.838Z,-5.57
2022-12-18T16:01:18.199Z,-5.56
2022-12-18T16:03:46.879Z,-5.51
2022-12-18T16:06:16.775Z,-5.59
2022-12-18T16:08:45.488Z,-5.63
2022-12-18T16:11:39.088Z,-5.75
2022-12-18T16:14:17.775Z,-5.68
2022-12-18T16:16:46.981Z,-5.79
2022-12-18T16:19:15.659Z,-5.72
2022-12-18T16:21:45.984Z,-5.65
2022-12-18T16:24:18.398Z,-5.60
2022-12-18T16:26:47.163Z,-5.66
2022-12-18T16:29:15.950Z,-5.77
2022-12-18T16:31:44.669Z,-5.65
2022-12-18T16:34:23.205Z,-5.66
2022-12-18T16:37:04.852Z,-5.64
2022-12-18T16:39:35.477Z,-5.61
2022-12-18T16:42:06.296Z,-5.77
2022-12-18T16:44:35.112Z,-5.68
2022-12-18T16:47:04.784Z,-5.67
2022-12-18T16:49:33.478Z,-5.58
2022-12-18T16:52:04.279Z,-5.58
2022-12-18T16:54:33.954Z,-5.75
2022-12-18T16:57:02.636Z,-5.60
2022-12-18T16:59:31.475Z,-5.54
2022-12-18T17:02:00.744Z,-5.56
2022-12-18T17:04:29.331Z,-5.51
2022-12-18T17:06:57.854Z,-5.43
2022-12-18T17:09:27.926Z,-5.49
2022-12-18T17:11:57.227Z,-5.56
2022-12-18T17:14:27.129Z,-5.60
2022-12-18T17:17:20.219Z,-5.51
2022-12-18T17:19:45.786Z,-5.61
2022-12-18T17:22:14.261Z,-5.50
2022-12-18T17:24:44.158Z,-5.49
2022-12-18T17:27:12.713Z,-5.41
2022-12-18T17:29:47.445Z,-5.47
2022-12-18T17:32:17.278Z,-5.42
2022-12-18T17:34:45.838Z,-5.37
2022-12-18T17:37:14.559Z,-5.46
2022-12-18T17:39:44.679Z,-5.53
2022-12-18T17:42:14.835Z,-5.41
2022-12-18T17:44:44.225Z,-5.39
2022-12-18T17:47:13.169Z,-5.40
2022-12-18T17:49:42.627Z,-5.35
2022-12-18T17:52:11.777Z,-5.34
2022-12-18T17:54:42.423Z,-5.34
2022-12-18T17:57:12.612Z,-5.35
2022-12-18T17:59:41.084Z,-5.53
2022-12-18T18:02:13.027Z,-5.41
2022-12-18T18:04:42.842Z,-5.34
2022-12-18T18:07:11.335Z,-5.33
2022-12-18T18:09:39.894Z,-5.59
2022-12-18T18:12:27.031Z,-5.55
2022-12-18T18:14:57.039Z,-5.51
2022-12-18T18:17:26.197Z,-5.53
2022-12-18T18:19:54.980Z,-5.50
2022-12-18T18:22:23.497Z,-5.52
2022-12-18T18:24:53.232Z,-5.46
2022-12-18T18:27:21.714Z,-5.31
2022-12-18T18:29:50.495Z,-5.44
2022-12-18T18:32:20.458Z,-5.42
2022-12-18T18:34:49.583Z,-5.40
2022-12-18T18:37:18.090Z,-5.34
2022-12-18T18:39:46.555Z,-5.47
2022-12-18T18:42:15.239Z,-5.46
2022-12-18T18:44:48.743Z,-5.44
2022-12-18T18:47:19.329Z,-5.45
2022-12-18T18:49:48.197Z,-5.37
2022-12-18T18:52:16.724Z,-5.42
2022-12-18T18:55:11.183Z,-5.46
2022-12-18T18:57:34.896Z,-5.43
2022-12-18T19:00:03.623Z,-5.32
2022-12-18T19:02:33.578Z,-5.30
2022-12-18T19:05:02.223Z,-5.42
2022-12-18T19:07:31.385Z,-5.45
2022-12-18T19:10:07.246Z,-5.30
2022-12-18T19:12:53.883Z,-5.22
2022-12-18T19:15:22.746Z,-5.24
2022-12-18T19:17:53.167Z,-5.19
2022-12-18T19:20:21.755Z,-5.20
2022-12-18T19:22:55.365Z,-5.17
2022-12-18T19:25:38.595Z,-5.17
2022-12-18T19:28:21.232Z,-5.11
2022-12-18T19:30:55.340Z,-5.10
2022-12-18T19:33:45.879Z,-5.18
2022-12-18T19:36:20.302Z,-5.25
2022-12-18T19:38:49.633Z,-5.26
2022-12-18T19:41:19.735Z,-5.24
2022-12-18T19:43:49.795Z,-5.44
2022-12-18T19:46:21.140Z,-5.33
2022-12-18T19:48:52.018Z,-5.36
2022-12-18T19:51:23.120Z,-5.47
2022-12-18T19:53:58.076Z,-5.32
2022-12-18T19:56:29.924Z,-5.41
2022-12-18T19:58:58.460Z,-5.45
2022-12-18T20:01:29.608Z,-5.36
2022-12-18T20:04:00.349Z,-5.19
2022-12-18T20:06:32.356Z,-5.20
2022-12-18T20:09:03.651Z,-5.17
2022-12-18T20:11:32.278Z,-5.14
2022-12-18T20:14:03.614Z,-5.02
2022-12-18T20:16:32.211Z,-4.99
2022-12-18T20:19:02.255Z,-4.99
2022-12-18T20:21:31.247Z,-4.98
2022-12-18T20:24:00.214Z,-4.99
2022-12-18T20:26:28.973Z,-5.02
2022-12-18T20:28:57.922Z,-4.98
2022-12-18T20:31:26.893Z,-4.98
2022-12-18T20:34:01.721Z,-4.95
2022-12-18T20:36:35.139Z,-4.92
2022-12-18T20:39:07.648Z,-4.93
2022-12-18T20:41:39.106Z,-4.92
2022-12-18T20:44:21.397Z,-4.95
2022-12-18T20:46:56.953Z,-4.90
2022-12-18T20:49:27.641Z,-4.89
2022-12-18T20:51:59.735Z,-4.86
2022-12-18T20:54:29.193Z,-4.84
2022-12-18T20:56:58.644Z,-4.83
2022-12-18T20:59:27.271Z,-4.82
2022-12-18T21:01:56.237Z,-4.83
2022-12-18T21:04:25.630Z,-4.80
2022-12-18T21:07:02.310Z,-4.82
2022-12-18T21:09:37.709Z,-4.83
2022-12-18T21:12:29.163Z,-4.82
2022-12-18T21:14:59.603Z,-4.76
2022-12-18T21:17:28.499Z,-4.80
2022-12-18T21:19:58.151Z,-4.72
2022-12-18T21:22:28.470Z,-4.69
2022-12-18T21:24:57.437Z,-4.66
2022-12-18T21:27:25.960Z,-4.62
2022-12-18T21:29:54.471Z,-4.64
2022-12-18T21:32:23.982Z,-4.69
2022-12-18T21:34:54.576Z,-4.59
2022-12-18T21:37:23.097Z,-4.66
2022-12-18T21:39:53.327Z,-4.69
2022-12-18T21:42:53.877Z,-4.65
2022-12-18T21:45:22.361Z,-4.56
2022-12-18T21:47:50.879Z,-4.61
2022-12-18T21:50:19.785Z,-4.55
2022-12-18T21:52:48.248Z,-4.53
2022-12-18T21:55:18.635Z,-4.50
2022-12-18T21:57:47.559Z,-4.47
2022-12-18T22:00:19.135Z,-4.49
2022-12-18T22:03:17.684Z,-4.44
2022-12-18T22:05:38.275Z,-4.38
2022-12-18T22:08:07.876Z,-4.44
2022-12-18T22:10:38.837Z,-4.40
2022-12-18T22:13:10.079Z,-4.33
2022-12-18T22:15:38.633Z,-4.34
2022-12-18T22:18:07.222Z,-4.36
2022-12-18T22:20:35.726Z,-4.37
2022-12-18T22:23:05.978Z,-4.30
2022-12-18T22:25:38.931Z,-4.32
2022-12-18T22:28:27.261Z,-4.29
2022-12-18T22:30:59.488Z,-4.35
2022-12-18T22:33:28.944Z,-4.29
2022-12-18T22:35:57.467Z,-4.28
2022-12-18T22:38:26.285Z,-4.24
2022-12-18T22:40:56.020Z,-4.17
2022-12-18T22:43:26.063Z,-4.22
2022-12-18T22:45:54.854Z,-4.19
2022-12-18T22:48:23.402Z,-4.21
2022-12-18T22:50:53.456Z,-4.17
2022-12-18T22:53:27.657Z,-4.15
2022-12-18T22:56:02.397Z,-4.11
2022-12-18T22:58:32.272Z,-4.13
2022-12-18T23:01:01.220Z,-4.12
2022-12-18T23:03:29.916Z,-4.07
2022-12-18T23:06:08.103Z,-4.12
2022-12-18T23:08:36.879Z,-4.01
2022-12-18T23:11:06.616Z,-3.99
2022-12-18T23:13:37.387Z,-3.98
2022-12-18T23:16:08.171Z,-3.96
2022-12-18T23:18:37.343Z,-4.03
2022-12-18T23:21:07.464Z,-3.93
2022-12-18T23:23:38.368Z,-3.78
2022-12-18T23:26:10.844Z,-3.65
2022-12-18T23:28:41.754Z,-3.59
2022-12-18T23:31:17.046Z,-3.51
2022-12-18T23:33:47.204Z,-3.53
2022-12-18T23:36:17.082Z,-3.58
2022-12-18T23:38:50.551Z,-3.57
2022-12-18T23:41:21.982Z,-3.54
2022-12-18T23:43:52.660Z,-3.57
2022-12-18T23:46:24.284Z,-3.61
2022-12-18T23:48:53.979Z,-3.55
2022-12-18T23:51:25.933Z,-3.55
2022-12-18T23:53:55.343Z,-3.53
2022-12-18T23:56:24.600Z,-3.65
2022-12-18T23:58:54.547Z,-3.58
